Time;durP1;ratioP1;P1;durP2;ratioP2;P2;SDS_P1;SDS_P2;PMS_P1;PMS_P2;Temp;Humidity;BMP_temperature;BMP_pressure;BME280_temperature;BME280_humidity;BME280_pressure;Samples;Min_cycle;Max_cycle;Signal;HPM_P1;HPM_P2
2021/05/13 00:01:48;;;;;;;3.00;1.00;;;26.90;41.40;;;;;;5054372;28;20040;-54
2021/05/13 00:04:14;;;;;;;2.80;1.02;;;26.90;41.40;;;;;;5053725;28;20038;-55
2021/05/13 00:06:40;;;;;;;3.15;0.90;;;26.90;41.40;;;;;;5054059;28;20513;-55
2021/05/13 00:09:11;;;;;;;3.50;1.15;;;26.80;41.40;;;;;;5054037;28;20045;-55
2021/05/13 00:11:39;;;;;;;2.70;1.20;;;26.80;41.40;;;;;;5052391;28;20144;-55
2021/05/13 00:14:07;;;;;;;1.60;1.05;;;26.80;41.40;;;;;;5052662;28;20063;-55
2021/05/13 00:16:35;;;;;;;2.97;1.30;;;26.80;41.50;;;;;;5053620;28;20048;-55
2021/05/13 00:19:07;;;;;;;3.55;0.90;;;26.80;41.40;;;;;;5052363;28;20501;-55
2021/05/13 00:21:34;;;;;;;1.63;0.88;;;26.80;41.50;;;;;;5053830;28;20048;-55
2021/05/13 00:24:00;;;;;;;4.53;1.30;;;26.80;41.60;;;;;;5053575;28;20044;-55
2021/05/13 00:26:37;;;;;;;2.17;1.00;;;26.80;41.50;;;;;;5053455;28;20025;-55
2021/05/13 00:29:06;;;;;;;3.92;0.80;;;26.80;41.60;;;;;;5052158;28;20040;-55
2021/05/13 00:31:32;;;;;;;4.68;1.33;;;26.80;41.70;;;;;;5053174;28;20103;-55
2021/05/13 00:34:00;;;;;;;2.55;1.05;;;26.80;41.60;;;;;;5052204;28;20049;-55
2021/05/13 00:36:30;;;;;;;2.83;0.88;;;26.70;41.60;;;;;;5053579;28;20438;-54
2021/05/13 00:38:57;;;;;;;3.33;1.65;;;26.70;41.80;;;;;;5069246;28;20489;-54
2021/05/13 00:41:23;;;;;;;2.50;1.00;;;26.70;41.60;;;;;;5073299;28;20036;-55
2021/05/13 00:43:49;;;;;;;3.20;1.20;;;26.70;41.70;;;;;;5072452;28;20425;-55
2021/05/13 00:46:16;;;;;;;1.50;1.10;;;26.70;41.70;;;;;;5071556;28;20120;-55
2021/05/13 00:48:45;;;;;;;2.47;1.10;;;26.70;41.80;;;;;;5087578;28;20043;-54
2021/05/13 00:51:11;;;;;;;3.63;1.50;;;26.70;41.80;;;;;;5075085;28;20029;-54
2021/05/13 00:53:44;;;;;;;2.63;1.10;;;26.70;41.80;;;;;;5074825;28;20447;-55
2021/05/13 00:56:11;;;;;;;2.10;1.00;;;26.70;41.90;;;;;;5072552;28;20135;-54
2021/05/13 00:58:40;;;;;;;2.42;1.00;;;26.60;41.80;;;;;;5072844;28;20028;-54
2021/05/13 01:01:10;;;;;;;2.78;1.25;;;26.60;41.80;;;;;;5054033;28;20059;-55
2021/05/13 01:03:36;;;;;;;2.75;1.23;;;26.60;41.80;;;;;;5072698;28;20335;-54
2021/05/13 01:06:10;;;;;;;2.65;0.98;;;26.60;41.70;;;;;;5072789;28;20032;-54
2021/05/13 01:08:36;;;;;;;4.60;0.90;;;26.60;41.80;;;;;;5072880;28;20033;-55
2021/05/13 01:11:03;;;;;;;4.07;1.23;;;26.60;41.70;;;;;;5055259;28;20122;-54
2021/05/13 01:13:32;;;;;;;3.80;0.85;;;26.50;41.70;;;;;;5072728;28;20039;-54
2021/05/13 01:16:23;;;;;;;5.55;1.30;;;26.50;41.70;;;;;;5072621;28;20041;-55
2021/05/13 01:18:49;;;;;;;6.40;1.63;;;26.50;41.70;;;;;;5072476;28;20031;-55
2021/05/13 01:21:15;;;;;;;2.80;1.10;;;26.50;41.70;;;;;;5073004;28;20028;-56
2021/05/13 01:23:42;;;;;;;2.70;1.30;;;26.40;41.70;;;;;;5072641;28;20532;-55
2021/05/13 01:26:09;;;;;;;3.25;1.23;;;26.40;41.70;;;;;;5072736;28;20033;-55
2021/05/13 01:28:35;;;;;;;4.32;1.20;;;26.40;41.70;;;;;;5072759;28;20365;-55
2021/05/13 01:31:01;;;;;;;4.20;1.15;;;26.40;41.70;;;;;;5071813;28;20036;-49
2021/05/13 01:33:28;;;;;;;2.72;1.33;;;26.40;41.70;;;;;;5070661;28;20035;-48
2021/05/13 01:35:54;;;;;;;3.10;1.13;;;26.40;41.70;;;;;;5071625;28;20043;-48
2021/05/13 01:38:23;;;;;;;3.70;1.45;;;26.40;41.80;;;;;;5072535;28;20080;-55
2021/05/13 01:40:53;;;;;;;3.55;1.30;;;26.40;41.70;;;;;;5072282;28;20115;-55
2021/05/13 01:43:19;;;;;;;;;;;26.30;41.70;;;;;;5087225;28;20461;-54
2021/05/13 01:45:45;;;;;;;3.88;1.10;;;26.30;41.50;;;;;;5072189;28;19917;-54
2021/05/13 01:48:12;;;;;;;3.53;1.33;;;26.40;41.60;;;;;;5072021;28;20801;-55
2021/05/13 01:50:38;;;;;;;4.47;1.30;;;26.40;41.60;;;;;;5072118;28;20052;-55
2021/05/13 01:53:06;;;;;;;6.22;1.25;;;26.40;41.70;;;;;;5052186;28;20043;-48
2021/05/13 01:55:33;;;;;;;2.47;1.20;;;26.30;41.70;;;;;;5052203;28;20036;-49
2021/05/13 01:57:59;;;;;;;3.97;1.30;;;26.30;41.70;;;;;;5071164;28;20032;-48
2021/05/13 02:00:26;;;;;;;4.43;1.52;;;26.30;41.70;;;;;;5071266;28;20047;-48
2021/05/13 02:02:52;;;;;;;5.97;1.30;;;26.30;41.70;;;;;;5069695;28;20350;-48
2021/05/13 02:05:21;;;;;;;4.07;1.30;;;26.30;41.70;;;;;;5052999;28;20036;-48
2021/05/13 02:07:47;;;;;;;3.38;1.33;;;26.30;41.80;;;;;;5070872;28;20771;-48
2021/05/13 02:10:14;;;;;;;4.80;1.38;;;26.30;41.80;;;;;;5070910;28;20588;-48
2021/05/13 02:12:41;;;;;;;4.60;1.30;;;26.30;41.80;;;;;;5071165;28;20497;-48
2021/05/13 02:15:12;;;;;;;4.63;1.58;;;26.30;41.80;;;;;;5053422;28;20113;-49
2021/05/13 02:17:39;;;;;;;4.75;1.30;;;26.30;41.80;;;;;;5070403;28;20068;-49
2021/05/13 02:20:08;;;;;;;5.00;1.38;;;26.30;41.80;;;;;;5070386;28;20466;-49
2021/05/13 02:22:34;;;;;;;4.00;1.70;;;26.20;41.80;;;;;;5071158;28;20037;-55
2021/05/13 02:25:00;;;;;;;5.95;1.77;;;26.30;41.80;;;;;;5053538;28;20033;-55
2021/05/13 02:27:26;;;;;;;5.95;1.92;;;26.20;41.80;;;;;;5070331;28;20124;-48
2021/05/13 02:29:52;;;;;;;2.55;1.35;;;26.20;41.80;;;;;;5070553;28;20123;-49
2021/05/13 02:32:18;;;;;;;4.38;1.63;;;26.20;41.80;;;;;;5070549;28;20072;-49
2021/05/13 02:34:44;;;;;;;4.45;1.33;;;26.20;41.80;;;;;;5070008;28;20032;-49
2021/05/13 02:37:10;;;;;;;5.40;1.98;;;26.20;41.90;;;;;;5070052;28;20037;-48
2021/05/13 02:39:36;;;;;;;3.40;1.58;;;26.10;41.80;;;;;;5070185;28;20024;-48
2021/05/13 02:42:02;;;;;;;5.82;1.67;;;26.20;41.90;;;;;;5069795;28;20032;-48
2021/05/13 02:44:28;;;;;;;4.97;1.70;;;26.10;41.90;;;;;;5070127;28;20043;-49
2021/05/13 02:46:54;;;;;;;5.00;1.40;;;26.10;41.90;;;;;;5052400;28;20024;-54
2021/05/13 02:49:20;;;;;;;5.07;1.52;;;26.10;41.90;;;;;;5071139;28;20036;-55
2021/05/13 02:51:46;;;;;;;3.85;1.50;;;26.10;41.90;;;;;;5052942;28;20101;-48
2021/05/13 02:54:12;;;;;;;4.50;1.40;;;26.10;41.90;;;;;;5069618;28;20032;-49
2021/05/13 02:56:38;;;;;;;4.47;1.83;;;26.10;41.90;;;;;;5069435;28;20052;-48
2021/05/13 02:59:04;;;;;;;7.88;1.58;;;26.10;41.90;;;;;;5069581;28;20105;-49
2021/05/13 03:01:30;;;;;;;3.90;1.95;;;26.10;41.90;;;;;;5069762;28;20025;-48
2021/05/13 03:03:58;;;;;;;4.85;1.85;;;26.10;41.90;;;;;;5069793;28;20040;-48
2021/05/13 03:06:26;;;;;;;5.97;1.80;;;26.10;42.00;;;;;;5069410;28;20032;-49
2021/05/13 03:08:54;;;;;;;7.45;1.90;;;26.00;41.90;;;;;;5069967;28;20082;-48
2021/05/13 03:11:22;;;;;;;5.10;2.00;;;26.00;41.90;;;;;;5069562;28;21852;-48
2021/05/13 03:13:52;;;;;;;5.10;1.73;;;26.10;42.00;;;;;;5069956;28;20025;-48
2021/05/13 03:16:18;;;;;;;4.72;1.90;;;26.10;42.00;;;;;;5069178;28;20032;-54
2021/05/13 03:18:50;;;;;;;6.15;2.30;;;26.00;41.90;;;;;;5070297;28;20055;-54
2021/05/13 03:21:40;;;;;;;5.55;2.10;;;26.00;41.90;;;;;;5070715;28;20499;-55
2021/05/13 03:27:27;;;;;;;5.55;1.73;;;26.00;41.90;;;;;;5070279;28;20107;-55
2021/05/13 03:29:27;;;;;;;5.47;2.25;;;26.00;41.90;;;;;;5062344;28;20072;-55
2021/05/13 03:31:53;;;;;;;6.88;2.05;;;25.90;41.80;;;;;;5070122;28;20039;-55
2021/05/13 03:34:19;;;;;;;3.13;1.70;;;25.90;41.80;;;;;;5070202;28;20132;-49
2021/05/13 03:36:45;;;;;;;6.80;2.42;;;25.90;41.80;;;;;;5070353;28;20036;-49
2021/05/13 03:39:11;;;;;;;6.07;1.80;;;25.90;41.90;;;;;;5068440;28;20056;-54
2021/05/13 03:41:37;;;;;;;5.90;2.15;;;25.90;41.90;;;;;;5067882;28;20094;-54
2021/05/13 03:44:04;;;;;;;6.75;2.80;;;25.90;41.90;;;;;;5071161;28;20040;-49
2021/05/13 03:46:31;;;;;;;6.18;2.10;;;25.90;41.90;;;;;;5071513;28;20128;-49
2021/05/13 03:48:57;;;;;;;3.50;1.83;;;25.90;41.90;;;;;;5070154;28;20119;-49
2021/05/13 03:51:24;;;;;;;4.85;2.10;;;25.90;41.90;;;;;;5066062;28;20482;-55
2021/05/13 03:53:50;;;;;;;5.10;2.17;;;25.90;41.90;;;;;;5068776;28;20118;-55
2021/05/13 03:56:16;;;;;;;6.18;2.20;;;25.80;41.80;;;;;;5070321;28;20470;-55
2021/05/13 03:58:48;;;;;;;6.07;1.73;;;25.90;41.90;;;;;;5070131;28;20086;-55
2021/05/13 04:01:27;;;;;;;5.10;2.10;;;25.80;41.80;;;;;;5070013;28;20458;-56
2021/05/13 04:03:53;;;;;;;5.63;2.00;;;25.80;41.80;;;;;;5068662;28;20044;-55
2021/05/13 04:06:19;;;;;;;4.30;2.00;;;25.80;41.70;;;;;;5063796;28;20383;-55
2021/05/13 04:08:49;;;;;;;8.18;3.03;;;25.80;41.70;;;;;;5071818;28;20137;-55
2021/05/13 04:11:15;;;;;;;6.93;2.50;;;25.80;41.70;;;;;;5072025;28;20095;-54
2021/05/13 04:13:42;;;;;;;6.80;2.30;;;25.80;41.70;;;;;;5072665;28;20179;-53
2021/05/13 04:16:08;;;;;;;6.15;2.05;;;25.80;41.70;;;;;;5072269;28;20062;-54
2021/05/13 04:18:34;;;;;;;6.05;2.20;;;25.70;41.60;;;;;;5070814;28;20048;-53
2021/05/13 04:21:00;;;;;;;5.10;2.35;;;25.70;41.60;;;;;;5072771;28;20556;-48
2021/05/13 04:23:26;;;;;;;4.82;2.20;;;25.70;41.70;;;;;;5072579;28;20055;-48
2021/05/13 04:25:52;;;;;;;6.85;2.22;;;25.70;41.60;;;;;;5072645;28;20032;-48
2021/05/13 04:28:18;;;;;;;5.53;1.95;;;25.70;41.60;;;;;;5054569;28;20040;-47
2021/05/13 04:30:44;;;;;;;4.97;2.08;;;25.70;41.50;;;;;;5073795;28;20098;-48
2021/05/13 04:33:12;;;;;;;6.25;2.33;;;25.70;41.50;;;;;;5073073;28;20036;-48
2021/05/13 04:35:38;;;;;;;3.92;1.65;;;25.70;41.40;;;;;;5054641;28;20110;-48
2021/05/13 04:38:05;;;;;;;5.60;1.92;;;25.70;41.40;;;;;;5071978;28;20093;-48
2021/05/13 04:40:32;;;;;;;16.98;12.50;;;25.70;41.30;;;;;;5072313;28;20123;-48
2021/05/13 04:42:58;;;;;;;15.18;12.07;;;25.70;41.30;;;;;;5071032;28;20039;-49
2021/05/13 04:45:24;;;;;;;12.10;10.10;;;25.70;41.30;;;;;;5070490;28;20041;-49
2021/05/13 04:50:25;;;;;;;11.57;6.50;;;25.60;41.10;;;;;;5072436;28;20077;-48
2021/05/13 04:52:51;;;;;;;9.68;5.97;;;25.60;41.10;;;;;;5087965;28;20432;-48
2021/05/13 04:55:17;;;;;;;9.98;4.80;;;25.60;41.10;;;;;;5081648;28;20045;-48
2021/05/13 04:57:44;;;;;;;7.70;4.78;;;25.60;41.00;;;;;;5069535;28;20039;-49
2021/05/13 05:00:11;;;;;;;8.15;3.58;;;25.60;41.00;;;;;;5073042;28;20382;-54
2021/05/13 05:02:37;;;;;;;7.60;4.13;;;25.50;40.90;;;;;;5071668;28;20068;-55
2021/05/13 05:05:05;;;;;;;7.22;4.40;;;25.50;41.00;;;;;;5073921;28;20359;-54
2021/05/13 05:07:31;;;;;;;8.93;6.05;;;25.50;41.10;;;;;;5075116;28;20090;-55
2021/05/13 05:09:57;;;;;;;20.90;18.67;;;25.50;40.90;;;;;;5074190;28;20435;-54
2021/05/13 05:12:23;;;;;;;17.42;15.60;;;25.50;41.00;;;;;;5055072;28;20033;-54
2021/05/13 05:14:49;;;;;;;18.38;14.90;;;25.50;40.90;;;;;;5055142;28;20033;-54
2021/05/13 05:17:15;;;;;;;24.27;21.17;;;25.50;40.80;;;;;;5055171;28;20041;-54
2021/05/13 05:19:41;;;;;;;19.38;15.40;;;25.40;40.80;;;;;;5036880;28;20205;-55
2021/05/13 05:22:07;;;;;;;22.65;16.70;;;25.40;40.60;;;;;;5055509;28;20104;-55
2021/05/13 05:24:34;;;;;;;16.50;14.02;;;25.40;40.60;;;;;;5074799;28;20035;-55
2021/05/13 05:27:00;;;;;;;15.10;10.82;;;25.40;40.70;;;;;;5075054;28;20043;-55
2021/05/13 05:29:26;;;;;;;16.20;9.35;;;25.40;40.60;;;;;;5056457;28;20386;-55
2021/05/13 05:31:52;;;;;;;14.90;7.70;;;25.40;40.50;;;;;;5074671;28;20081;-54
2021/05/13 05:34:18;;;;;;;12.32;6.05;;;25.30;40.50;;;;;;5074985;28;20044;-55
2021/05/13 05:36:44;;;;;;;11.10;4.93;;;25.30;40.50;;;;;;5074777;28;20112;-55
2021/05/13 05:39:10;;;;;;;9.63;3.95;;;25.30;40.50;;;;;;5074274;28;20137;-55
2021/05/13 05:41:36;;;;;;;7.10;3.95;;;25.30;40.40;;;;;;5043063;28;20037;-55
2021/05/13 05:44:02;;;;;;;9.15;3.88;;;25.30;40.50;;;;;;5054220;28;20111;-55
2021/05/13 05:46:28;;;;;;;5.32;3.25;;;25.30;40.40;;;;;;5054609;28;20061;-55
2021/05/13 05:48:55;;;;;;;7.63;3.15;;;25.30;40.40;;;;;;5073247;28;20116;-55
2021/05/13 05:51:21;;;;;;;9.13;5.50;;;25.30;40.40;;;;;;5074088;28;20093;-55
2021/05/13 05:53:47;;;;;;;18.13;10.38;;;25.20;40.30;;;;;;5046675;28;20125;-55
2021/05/13 05:56:13;;;;;;;16.42;9.68;;;25.20;40.40;;;;;;5058463;28;20371;-55
2021/05/13 05:58:39;;;;;;;15.75;10.05;;;25.20;40.40;;;;;;5056061;28;20094;-55
2021/05/13 06:01:05;;;;;;;13.77;9.30;;;25.20;40.40;;;;;;5073853;28;20377;-55
2021/05/13 06:03:31;;;;;;;11.57;7.20;;;25.20;40.50;;;;;;5072112;28;20044;-55
2021/05/13 06:05:57;;;;;;;8.40;6.00;;;25.20;40.50;;;;;;5069432;28;20366;-55
2021/05/13 06:08:23;;;;;;;9.20;5.45;;;25.20;40.50;;;;;;5072819;28;20041;-55
2021/05/13 06:10:49;;;;;;;8.43;5.15;;;25.20;40.50;;;;;;5073395;28;20513;-54
2021/05/13 06:13:15;;;;;;;9.35;4.10;;;25.20;40.50;;;;;;5039157;28;20131;-55
2021/05/13 06:15:41;;;;;;;10.15;5.80;;;25.20;40.40;;;;;;5073601;28;20107;-55
2021/05/13 06:18:08;;;;;;;14.70;7.05;;;25.20;40.40;;;;;;5073360;28;20529;-55
2021/05/13 06:20:35;;;;;;;13.38;7.63;;;25.30;40.40;;;;;;5073293;28;20064;-60
2021/05/13 06:23:02;;;;;;;16.67;7.32;;;25.20;40.40;;;;;;5073344;28;20032;-55
2021/05/13 06:25:29;;;;;;;14.20;6.60;;;25.30;40.40;;;;;;5072689;28;20412;-55
2021/05/13 06:27:57;;;;;;;11.07;4.88;;;25.20;40.30;;;;;;5072800;28;20028;-55
2021/05/13 06:30:23;;;;;;;13.82;4.43;;;25.30;40.40;;;;;;5072896;28;20052;-55
2021/05/13 06:32:50;;;;;;;10.77;4.00;;;25.20;40.20;;;;;;5072934;28;20555;-55
2021/05/13 06:35:18;;;;;;;10.20;3.60;;;25.20;40.90;;;;;;5072692;28;20049;-55
2021/05/13 06:37:44;;;;;;;10.00;3.90;;;25.30;40.40;;;;;;5072694;28;20593;-54
2021/05/13 06:40:10;;;;;;;8.88;3.38;;;25.30;40.50;;;;;;5072943;28;20040;-55
2021/05/13 06:42:36;;;;;;;9.27;2.53;;;25.30;40.50;;;;;;5072283;28;20044;-56
2021/05/13 06:45:04;;;;;;;7.05;2.15;;;25.30;40.40;;;;;;5072910;28;20429;-56
2021/05/13 06:47:30;;;;;;;6.32;2.65;;;25.30;40.40;;;;;;5072642;28;20051;-56
2021/05/13 06:49:56;;;;;;;6.25;2.42;;;25.30;40.30;;;;;;5072708;28;20033;-55
2021/05/13 06:52:22;;;;;;;6.35;1.92;;;25.30;40.10;;;;;;5072261;28;20458;-55
2021/05/13 06:54:48;;;;;;;5.90;2.10;;;25.30;40.00;;;;;;5053984;28;20086;-55
2021/05/13 06:57:14;;;;;;;6.10;2.20;;;25.30;39.90;;;;;;5054076;28;20402;-55
2021/05/13 06:59:43;;;;;;;6.43;2.10;;;25.40;39.90;;;;;;5071996;28;20048;-55
2021/05/13 07:02:10;;;;;;;4.53;2.25;;;25.40;39.80;;;;;;5072015;28;20017;-55
2021/05/13 07:04:37;;;;;;;11.35;2.90;;;25.40;39.80;;;;;;5072402;28;20036;-56
2021/05/13 07:07:03;;;;;;;11.50;2.88;;;25.40;39.70;;;;;;5053868;28;20039;-56
2021/05/13 07:09:29;;;;;;;11.45;5.25;;;25.50;39.80;;;;;;5072135;28;20463;-57
2021/05/13 07:11:55;;;;;;;13.30;7.72;;;25.50;39.60;;;;;;5071990;28;20033;-56
2021/05/13 07:14:22;;;;;;;11.80;6.40;;;25.50;39.60;;;;;;5053654;28;20050;-55
2021/05/13 07:16:49;;;;;;;9.65;4.82;;;25.50;39.50;;;;;;5071664;28;20067;-55
2021/05/13 07:19:15;;;;;;;12.05;4.40;;;25.50;39.40;;;;;;5071597;28;20072;-55
2021/05/13 07:21:41;;;;;;;9.02;4.13;;;25.50;39.40;;;;;;5071688;28;20434;-55
2021/05/13 07:24:08;;;;;;;9.32;4.18;;;25.50;39.30;;;;;;5071770;28;20123;-55
2021/05/13 07:26:34;;;;;;;8.50;4.57;;;25.50;39.30;;;;;;5071594;28;20328;-55
2021/05/13 07:29:00;;;;;;;12.43;6.45;;;25.60;39.20;;;;;;5071527;28;20037;-55
2021/05/13 07:31:26;;;;;;;13.32;5.20;;;25.60;39.10;;;;;;5071652;28;20024;-55
2021/05/13 07:33:52;;;;;;;8.45;4.32;;;25.60;39.20;;;;;;5072002;28;20063;-55
2021/05/13 07:36:18;;;;;;;8.68;3.70;;;25.60;39.10;;;;;;5072191;28;20539;-56
2021/05/13 07:38:46;;;;;;;12.48;3.75;;;25.60;39.60;;;;;;5072009;28;20545;-57
2021/05/13 07:41:15;;;;;;;9.05;2.63;;;25.60;38.90;;;;;;5072267;28;20033;-56
2021/05/13 07:43:43;;;;;;;10.35;3.03;;;25.60;38.90;;;;;;5072400;28;20398;-56
2021/05/13 07:46:10;;;;;;;6.03;2.50;;;25.70;38.90;;;;;;5071672;28;20024;-55
2021/05/13 07:48:36;;;;;;;6.57;2.83;;;25.70;38.80;;;;;;5071611;28;20075;-54
2021/05/13 07:51:03;;;;;;;8.07;2.80;;;25.70;38.80;;;;;;5071198;28;20040;-55
2021/05/13 07:53:29;;;;;;;15.82;2.88;;;25.70;38.80;;;;;;5072291;28;20398;-55
2021/05/13 07:55:55;;;;;;;6.05;3.00;;;25.70;38.80;;;;;;5075655;28;20036;-55
2021/05/13 07:58:21;;;;;;;8.95;2.72;;;25.80;38.80;;;;;;5075526;28;20049;-55
2021/05/13 08:00:48;;;;;;;7.18;2.80;;;25.80;38.70;;;;;;5057382;28;20490;-55
2021/05/13 08:03:14;;;;;;;10.60;2.67;;;25.80;38.60;;;;;;5075303;28;20047;-55
2021/05/13 08:05:40;;;;;;;5.07;2.25;;;25.80;38.60;;;;;;5075312;28;20119;-55
2021/05/13 08:08:06;;;;;;;6.47;2.58;;;25.80;38.50;;;;;;5075114;28;20135;-55
2021/05/13 08:10:33;;;;;;;7.05;2.00;;;25.80;38.50;;;;;;5075310;28;20059;-55
2021/05/13 08:12:59;;;;;;;4.10;1.92;;;25.90;38.50;;;;;;5075000;28;20056;-55
2021/05/13 08:15:25;;;;;;;7.97;2.33;;;25.90;38.40;;;;;;5075343;28;20401;-55
2021/05/13 08:17:51;;;;;;;5.97;2.15;;;25.90;38.30;;;;;;5075078;28;20037;-55
2021/05/13 08:20:18;;;;;;;5.07;1.88;;;26.00;38.30;;;;;;5074921;28;20044;-55
2021/05/13 08:22:46;;;;;;;6.47;2.05;;;26.00;38.30;;;;;;5075017;28;20087;-55
2021/05/13 08:25:15;;;;;;;4.90;2.05;;;26.10;38.30;;;;;;5074861;28;20081;-55
2021/05/13 08:27:41;;;;;;;7.63;3.45;;;26.00;38.20;;;;;;5056514;28;20029;-55
2021/05/13 08:30:08;;;;;;;18.08;15.32;;;26.10;38.20;;;;;;5075026;28;20045;-56
2021/05/13 08:32:34;;;;;;;15.70;8.80;;;26.10;37.90;;;;;;5074815;28;20041;-55
2021/05/13 08:35:00;;;;;;;11.93;4.78;;;26.20;38.00;;;;;;5074964;28;20048;-55
2021/05/13 08:37:27;;;;;;;7.20;2.22;;;26.10;37.70;;;;;;5074810;28;20386;-55
2021/05/13 08:39:55;;;;;;;10.77;3.05;;;26.20;37.60;;;;;;5074518;28;20049;-54
2021/05/13 08:42:21;;;;;;;12.15;8.38;;;26.20;37.20;;;;;;5074540;28;20460;-55
2021/05/13 08:44:48;;;;;;;13.43;6.03;;;26.20;37.10;;;;;;5074703;28;20053;-54
2021/05/13 08:47:14;;;;;;;13.50;7.30;;;26.30;36.90;;;;;;5074744;28;20079;-56
2021/05/13 08:49:41;;;;;;;12.77;6.53;;;26.30;36.80;;;;;;5075186;28;20041;-55
2021/05/13 08:52:09;;;;;;;6.82;4.07;;;26.30;36.70;;;;;;5056812;28;20033;-57
2021/05/13 08:54:35;;;;;;;7.57;4.38;;;26.30;36.40;;;;;;5074815;28;20094;-56
2021/05/13 08:57:01;;;;;;;8.02;4.20;;;26.30;36.30;;;;;;5074768;28;20457;-56
2021/05/13 08:59:28;;;;;;;10.68;3.03;;;26.40;36.30;;;;;;5074500;28;20032;-57
2021/05/13 09:01:58;;;;;;;10.70;3.70;;;26.40;36.20;;;;;;5074184;28;20478;-55
2021/05/13 09:04:36;;;;;;;4.72;3.05;;;26.40;36.20;;;;;;5073189;28;20059;-55
2021/05/13 09:07:18;;;;;;;9.10;3.55;;;26.40;36.20;;;;;;5073722;28;20044;-55
2021/05/13 09:10:08;;;;;;;10.60;3.13;;;26.40;36.30;;;;;;5073583;28;20029;-56
2021/05/13 09:12:47;;;;;;;6.55;2.75;;;26.40;36.20;;;;;;5073650;28;20479;-55
2021/05/13 09:15:18;;;;;;;4.35;2.47;;;26.50;36.20;;;;;;5073921;28;20112;-56
2021/05/13 09:17:57;;;;;;;6.35;2.80;;;26.50;36.20;;;;;;5073345;28;20075;-56
2021/05/13 09:20:29;;;;;;;7.22;3.00;;;26.60;36.10;;;;;;5073634;28;20048;-55
2021/05/13 09:23:10;;;;;;;5.00;2.33;;;26.60;36.00;;;;;;5073304;28;20090;-55
2021/05/13 09:25:36;;;;;;;4.63;2.85;;;26.60;36.10;;;;;;5055193;28;20028;-55
2021/05/13 09:28:02;;;;;;;6.40;2.92;;;26.70;36.00;;;;;;5073039;28;20033;-55
2021/05/13 09:30:29;;;;;;;5.20;2.78;;;26.70;35.90;;;;;;5055237;28;20044;-55
2021/05/13 09:32:57;;;;;;;5.95;2.83;;;26.70;35.80;;;;;;5073044;28;20068;-55
2021/05/13 09:35:31;;;;;;;4.43;2.63;;;26.80;35.70;;;;;;5073437;28;20394;-55
2021/05/13 09:38:02;;;;;;;9.80;3.08;;;26.80;35.40;;;;;;5072695;28;20452;-54
2021/05/13 09:40:41;;;;;;;5.40;3.08;;;26.80;35.40;;;;;;5072972;28;20064;-54
2021/05/13 09:43:20;;;;;;;10.40;5.90;;;26.90;34.70;;;;;;5055084;28;20036;-54
2021/05/13 09:45:48;;;;;;;13.90;11.15;;;26.90;34.10;;;;;;5072617;28;20042;-54
2021/05/13 09:48:41;;;;;;;12.80;8.52;;;26.90;34.20;;;;;;5072745;28;20040;-55
2021/05/13 09:51:36;;;;;;;8.60;5.40;;;27.00;34.20;;;;;;5072794;28;20486;-55
2021/05/13 09:54:09;;;;;;;7.85;5.90;;;27.00;33.90;;;;;;5072700;28;20434;-54
2021/05/13 09:56:41;;;;;;;7.97;5.50;;;27.00;33.40;;;;;;5072961;28;20125;-53
2021/05/13 09:59:21;;;;;;;9.40;4.22;;;27.00;33.30;;;;;;5072242;28;20064;-53
2021/05/13 10:01:48;;;;;;;4.75;2.70;;;27.10;33.40;;;;;;5072426;28;20029;-53
2021/05/13 10:04:14;;;;;;;4.93;2.55;;;27.10;33.30;;;;;;5072123;28;20036;-53
2021/05/13 10:06:40;;;;;;;8.98;2.22;;;27.20;33.30;;;;;;5072040;28;20081;-53
2021/05/13 10:09:06;;;;;;;3.53;1.55;;;27.20;33.30;;;;;;5071816;28;20036;-54
2021/05/13 10:11:33;;;;;;;5.85;1.92;;;27.20;33.20;;;;;;5072083;28;20028;-54
2021/05/13 10:13:59;;;;;;;5.72;1.65;;;27.20;33.00;;;;;;5071793;28;20032;-54
2021/05/13 10:16:28;;;;;;;3.95;1.50;;;27.20;33.50;;;;;;5071180;28;20167;-53
2021/05/13 10:19:00;;;;;;;3.65;1.50;;;27.30;32.70;;;;;;5071848;28;20131;-54
2021/05/13 10:21:30;;;;;;;2.22;1.10;;;27.30;32.40;;;;;;5072046;28;20068;-54
2021/05/13 10:23:57;;;;;;;2.95;1.30;;;27.30;32.40;;;;;;5071611;28;20089;-54
2021/05/13 10:26:30;;;;;;;3.08;1.40;;;27.40;32.30;;;;;;5070682;28;20542;-53
2021/05/13 10:28:56;;;;;;;9.93;1.92;;;27.40;32.00;;;;;;5070481;28;20074;-53
2021/05/13 10:31:36;;;;;;;3.92;1.45;;;27.40;32.10;;;;;;5070808;28;20051;-53
2021/05/13 10:34:03;;;;;;;8.52;1.40;;;27.40;31.80;;;;;;5053187;28;20040;-52
2021/05/13 10:36:29;;;;;;;4.20;1.95;;;27.50;31.90;;;;;;5071094;28;20032;-53
2021/05/13 10:39:10;;;;;;;10.82;2.33;;;27.50;31.60;;;;;;5070774;28;20044;-55
2021/05/13 10:41:41;;;;;;;6.82;1.95;;;27.60;31.30;;;;;;5071906;28;20068;-55
2021/05/13 10:44:10;;;;;;;7.53;1.95;;;27.60;31.20;;;;;;5071487;28;20041;-55
2021/05/13 10:46:38;;;;;;;6.40;1.55;;;27.60;31.10;;;;;;5071587;28;20440;-53
2021/05/13 10:49:15;;;;;;;12.48;1.67;;;27.70;31.10;;;;;;5071721;28;20036;-54
2021/05/13 10:51:45;;;;;;;9.73;2.17;;;27.70;31.10;;;;;;5071211;28;20067;-53
2021/05/13 10:54:31;;;;;;;;;;;27.80;31.30;;;;;;5071958;28;20516;-53
2021/05/13 10:57:14;;;;;;;5.82;2.30;;;27.80;32.20;;;;;;5053833;28;20267;-53
2021/05/13 11:00:00;;;;;;;7.60;3.63;;;27.90;31.40;;;;;;5071215;28;20037;-53
2021/05/13 11:02:44;;;;;;;9.18;4.50;;;28.00;31.40;;;;;;5071192;28;20028;-55
2021/05/13 11:05:32;;;;;;;9.95;3.90;;;28.00;31.30;;;;;;5070897;28;20043;-54
2021/05/13 11:08:07;;;;;;;7.38;3.80;;;28.00;31.40;;;;;;5058353;28;20032;-53
2021/05/13 11:10:49;;;;;;;7.93;3.20;;;28.10;31.10;;;;;;5071217;28;20410;-53
2021/05/13 11:13:16;;;;;;;42.72;33.10;;;28.10;30.90;;;;;;5071064;28;20048;-54
2021/05/13 11:15:46;;;;;;;29.35;24.83;;;28.10;30.40;;;;;;5070811;28;20040;-53
2021/05/13 11:18:15;;;;;;;20.38;13.90;;;28.10;30.30;;;;;;5070811;28;20072;-53
2021/05/13 11:20:44;;;;;;;14.70;8.20;;;28.20;30.00;;;;;;5052357;28;20044;-54
2021/05/13 11:23:22;;;;;;;8.60;6.20;;;28.20;29.80;;;;;;5071129;28;20398;-54
2021/05/13 11:25:52;;;;;;;11.57;5.53;;;28.20;29.70;;;;;;5070653;28;20044;-54
2021/05/13 11:28:24;;;;;;;7.43;4.15;;;28.30;29.90;;;;;;5070253;28;20432;-54
2021/05/13 11:30:53;;;;;;;6.72;3.95;;;28.40;30.00;;;;;;5052492;28;20036;-53
2021/05/13 11:33:21;;;;;;;6.60;3.10;;;28.40;29.90;;;;;;5053002;28;20036;-53
2021/05/13 11:35:47;;;;;;;3.83;2.60;;;28.40;30.00;;;;;;5070405;28;20071;-54
2021/05/13 11:38:15;;;;;;;3.78;2.08;;;28.50;30.00;;;;;;5070402;28;20123;-53
2021/05/13 11:40:42;;;;;;;13.13;10.77;;;28.50;30.10;;;;;;5070383;28;20036;-54
2021/05/13 11:43:23;;;;;;;47.42;42.30;;;28.60;30.30;;;;;;5070974;28;20031;-54
2021/05/13 11:45:51;;;;;;;42.08;37.80;;;28.60;30.30;;;;;;5070389;28;20044;-52
2021/05/13 11:48:35;;;;;;;31.15;26.52;;;28.70;30.40;;;;;;5070225;28;20496;-52
2021/05/13 11:51:28;;;;;;;23.35;20.25;;;28.70;30.30;;;;;;5069432;28;20143;-52
2021/05/13 11:54:02;;;;;;;15.98;13.95;;;28.70;30.70;;;;;;5069202;28;20064;-52
2021/05/13 11:56:31;;;;;;;12.98;11.30;;;28.80;30.60;;;;;;5069846;28;20117;-52
2021/05/13 11:58:59;;;;;;;9.85;7.35;;;28.80;30.60;;;;;;5069782;28;20127;-52
2021/05/13 12:01:28;;;;;;;7.55;6.75;;;28.80;30.50;;;;;;5069320;28;20052;-53
2021/05/13 12:04:04;;;;;;;6.90;5.20;;;28.80;30.60;;;;;;5069487;28;20170;-53
2021/05/13 12:06:41;;;;;;;6.55;4.45;;;28.80;30.50;;;;;;5069149;28;20117;-53
2021/05/13 12:09:07;;;;;;;7.60;4.43;;;28.80;30.70;;;;;;5051348;28;20029;-52
2021/05/13 12:11:33;;;;;;;8.77;4.20;;;28.90;31.00;;;;;;5069140;28;20040;-52
2021/05/13 12:14:04;;;;;;;5.57;3.10;;;28.90;30.80;;;;;;5069539;28;20468;-53
2021/05/13 12:16:30;;;;;;;4.30;3.30;;;28.90;30.80;;;;;;5069280;28;20056;-52
2021/05/13 12:19:07;;;;;;;4.82;2.67;;;28.90;30.90;;;;;;5069061;28;20063;-53
2021/05/13 12:21:36;;;;;;;3.30;2.53;;;28.90;30.70;;;;;;5069298;28;20390;-53
2021/05/13 12:24:07;;;;;;;4.43;2.67;;;28.90;30.60;;;;;;5051083;28;20036;-52
2021/05/13 12:26:40;;;;;;;3.70;2.10;;;28.90;30.60;;;;;;5068891;28;20037;-53
2021/05/13 12:29:13;;;;;;;8.35;2.95;;;28.90;30.70;;;;;;5068989;28;20028;-53
2021/05/13 12:31:40;;;;;;;4.95;2.75;;;28.90;30.40;;;;;;5068865;28;20040;-53
2021/05/13 12:34:06;;;;;;;6.82;3.08;;;29.00;30.60;;;;;;5069376;28;20040;-53
2021/05/13 12:36:38;;;;;;;9.05;3.10;;;29.00;30.60;;;;;;5069032;28;20036;-53
2021/05/13 12:39:06;;;;;;;6.60;3.47;;;29.00;30.60;;;;;;5050792;28;20056;-53
2021/05/13 12:41:33;;;;;;;7.68;4.13;;;29.00;30.50;;;;;;5072321;28;20036;-52
2021/05/13 12:44:28;;;;;;;9.40;4.85;;;29.00;30.60;;;;;;5072161;28;20032;-52
2021/05/13 12:46:59;;;;;;;10.02;5.57;;;29.10;30.70;;;;;;5070701;28;20040;-53
2021/05/13 12:49:28;;;;;;;6.63;4.55;;;29.00;30.30;;;;;;5072391;28;20076;-53
2021/05/13 12:52:09;;;;;;;6.90;3.72;;;29.10;30.30;;;;;;5072144;28;20036;-53
2021/05/13 12:54:40;;;;;;;5.80;3.20;;;29.10;30.10;;;;;;5072509;28;20092;-53
2021/05/13 12:57:20;;;;;;;5.30;3.05;;;29.10;30.20;;;;;;5072012;28;20048;-54